Time;durP1;ratioP1;P1;durP2;ratioP2;P2;SDS_P1;SDS_P2;PMS_P1;PMS_P2;Temp;Humidity;BMP_temperature;BMP_pressure;BME280_temperature;BME280_humidity;BME280_pressure;Samples;Min_cycle;Max_cycle;Signal;HPM_P1;HPM_P2
2022/10/29 00:00:00;;;;;;;13.63;5.50;;;;;;;;;;5053023;28;20201;-46
2022/10/29 00:02:27;;;;;;;9.13;4.20;;;;;;;;;;5050854;28;20202;-46
2022/10/29 00:04:53;;;;;;;12.93;5.70;;;;;;;;;;5052420;28;20228;-46
2022/10/29 00:07:19;;;;;;;12.57;5.10;;;;;;;;;;5048660;28;20402;-45
2022/10/29 00:09:45;;;;;;;8.97;5.10;;;;;;;;;;5051001;28;20205;-46
2022/10/29 00:12:11;;;;;;;12.47;5.70;;;;;;;;;;5052166;28;20283;-45
2022/10/29 00:14:37;;;;;;;12.57;5.93;;;;;;;;;;5050380;28;20302;-46
2022/10/29 00:17:03;;;;;;;13.70;6.10;;;;;;;;;;5050509;28;20810;-45
2022/10/29 00:19:31;;;;;;;9.87;5.37;;;;;;;;;;5050355;28;20308;-46
2022/10/29 00:21:57;;;;;;;9.77;5.20;;;;;;;;;;5051792;28;20713;-45
2022/10/29 00:24:23;;;;;;;13.23;5.53;;;;;;;;;;5051658;28;20200;-45
2022/10/29 00:26:49;;;;;;;17.80;10.27;;;;;;;;;;5052125;28;20291;-45
2022/10/29 00:29:15;;;;;;;11.53;7.20;;;;;;;;;;5050637;28;20283;-45
2022/10/29 00:31:41;;;;;;;13.83;5.03;;;;;;;;;;5051614;28;20614;-46
2022/10/29 00:34:07;;;;;;;10.33;4.83;;;;;;;;;;5051618;28;20253;-45
2022/10/29 00:36:34;;;;;;;7.07;4.60;;;;;;;;;;5049523;28;20274;-46
2022/10/29 00:39:00;;;;;;;12.07;4.97;;;;;;;;;;5049820;28;20228;-46
2022/10/29 00:41:28;;;;;;;8.17;4.00;;;;;;;;;;5051690;28;20741;-46
2022/10/29 00:44:09;;;;;;;9.10;4.70;;;;;;;;;;5052051;28;20221;-46
2022/10/29 00:46:35;;;;;;;8.13;4.10;;;;;;;;;;5051535;28;20212;-46
2022/10/29 00:49:02;;;;;;;8.37;4.00;;;;;;;;;;5052001;28;20231;-46
2022/10/29 00:51:29;;;;;;;10.77;4.50;;;;;;;;;;5051957;28;20235;-45
2022/10/29 00:53:59;;;;;;;9.77;4.50;;;;;;;;;;5049886;28;20200;-46
2022/10/29 00:56:28;;;;;;;10.67;4.37;;;;;;;;;;5051808;28;20205;-46
2022/10/29 00:58:54;;;;;;;8.60;4.40;;;;;;;;;;5051639;28;20214;-45
2022/10/29 01:01:20;;;;;;;10.37;4.00;;;;;;;;;;5051681;28;20200;-46
2022/10/29 01:03:47;;;;;;;9.80;3.93;;;;;;;;;;5051876;28;20222;-46
2022/10/29 01:06:13;;;;;;;8.77;3.93;;;;;;;;;;5051765;28;20246;-46
2022/10/29 01:08:39;;;;;;;9.70;4.30;;;;;;;;;;5051644;28;20282;-46
2022/10/29 01:11:11;;;;;;;9.13;3.70;;;;;;;;;;5051623;28;20196;-46
2022/10/29 01:13:44;;;;;;;8.87;4.03;;;;;;;;;;5051593;28;20732;-46
2022/10/29 01:16:16;;;;;;;7.43;4.00;;;;;;;;;;5051703;28;20406;-46
2022/10/29 01:18:45;;;;;;;8.17;4.13;;;;;;;;;;5051620;28;20190;-43
2022/10/29 01:21:29;;;;;;;7.90;4.20;;;;;;;;;;5051397;28;20238;-46
2022/10/29 01:24:16;;;;;;;6.73;3.77;;;;;;;;;;5050835;28;20204;-46
2022/10/29 01:26:57;;;;;;;9.40;3.70;;;;;;;;;;5051708;28;20188;-45
2022/10/29 01:29:29;;;;;;;8.07;3.90;;;;;;;;;;5051376;28;20200;-46
2022/10/29 01:32:00;;;;;;;5.80;3.60;;;;;;;;;;5052017;28;20247;-46
2022/10/29 01:34:31;;;;;;;6.10;3.27;;;;;;;;;;5051736;28;20200;-46
2022/10/29 01:36:58;;;;;;;9.07;4.00;;;;;;;;;;5051576;28;20227;-46
2022/10/29 01:39:27;;;;;;;13.47;4.30;;;;;;;;;;5050690;28;20261;-44
2022/10/29 01:41:56;;;;;;;8.87;4.20;;;;;;;;;;5051515;28;20196;-44
2022/10/29 01:44:28;;;;;;;8.17;4.07;;;;;;;;;;5051061;28;20650;-44
2022/10/29 01:46:57;;;;;;;10.93;4.67;;;;;;;;;;5051785;28;20196;-44
2022/10/29 01:49:26;;;;;;;11.17;5.10;;;;;;;;;;5051420;28;20212;-44
2022/10/29 01:51:53;;;;;;;7.63;4.93;;;;;;;;;;5051191;28;20232;-45
2022/10/29 01:54:19;;;;;;;8.67;4.87;;;;;;;;;;5051446;28;20243;-44
2022/10/29 01:56:52;;;;;;;10.67;5.57;;;;;;;;;;5051421;28;20259;-45
2022/10/29 01:59:18;;;;;;;12.33;5.80;;;;;;;;;;5051442;28;20299;-44
2022/10/29 02:01:51;;;;;;;12.37;6.00;;;;;;;;;;5051585;28;20214;-44
2022/10/29 02:04:30;;;;;;;9.93;5.77;;;;;;;;;;5051687;28;20200;-45
2022/10/29 02:06:59;;;;;;;11.90;5.70;;;;;;;;;;5051493;28;20600;-44
2022/10/29 02:09:28;;;;;;;14.10;6.40;;;;;;;;;;5051293;28;20603;-44
2022/10/29 02:11:57;;;;;;;13.00;6.10;;;;;;;;;;5051437;28;20211;-45
2022/10/29 02:14:26;;;;;;;13.73;6.30;;;;;;;;;;5051161;28;20286;-44
2022/10/29 02:16:54;;;;;;;17.97;6.50;;;;;;;;;;5051542;28;20260;-45
2022/10/29 02:19:20;;;;;;;13.67;6.60;;;;;;;;;;5051284;28;20261;-45
2022/10/29 02:21:49;;;;;;;12.83;6.97;;;;;;;;;;5051262;28;20196;-45
2022/10/29 02:24:15;;;;;;;12.87;7.00;;;;;;;;;;5051501;28;20222;-44
2022/10/29 02:26:41;;;;;;;12.50;7.40;;;;;;;;;;5051134;28;20196;-45
2022/10/29 02:29:07;;;;;;;9.67;6.27;;;;;;;;;;5050893;28;20250;-44
2022/10/29 02:31:35;;;;;;;16.70;6.00;;;;;;;;;;5047899;28;20204;-44
2022/10/29 02:34:01;;;;;;;12.53;6.20;;;;;;;;;;5050540;28;20283;-44
2022/10/29 02:36:27;;;;;;;9.07;5.60;;;;;;;;;;5050697;28;20235;-44
2022/10/29 02:38:54;;;;;;;9.10;5.73;;;;;;;;;;5049004;28;20212;-44
2022/10/29 02:41:20;;;;;;;7.40;5.10;;;;;;;;;;5050622;28;20208;-45
2022/10/29 02:43:46;;;;;;;9.03;5.30;;;;;;;;;;5050098;28;20246;-44
2022/10/29 02:46:13;;;;;;;11.10;5.63;;;;;;;;;;5047905;28;20246;-44
2022/10/29 02:48:39;;;;;;;6.07;4.90;;;;;;;;;;5050643;28;20554;-44
2022/10/29 02:51:06;;;;;;;9.37;5.37;;;;;;;;;;5050585;28;20236;-45
2022/10/29 02:53:32;;;;;;;10.07;5.40;;;;;;;;;;5050800;28;20291;-44
2022/10/29 02:55:59;;;;;;;8.97;5.30;;;;;;;;;;5050639;28;20212;-45
2022/10/29 02:58:25;;;;;;;9.43;5.60;;;;;;;;;;5050394;28;20260;-44
2022/10/29 03:00:51;;;;;;;11.53;5.10;;;;;;;;;;5050711;28;20291;-44
2022/10/29 03:03:17;;;;;;;11.27;5.40;;;;;;;;;;5053002;28;20207;-45
2022/10/29 03:05:43;;;;;;;10.27;5.50;;;;;;;;;;5054324;28;20273;-44
2022/10/29 03:08:10;;;;;;;13.50;5.50;;;;;;;;;;5052619;28;20675;-45
2022/10/29 03:10:36;;;;;;;9.07;5.87;;;;;;;;;;5054446;28;20185;-44
2022/10/29 03:13:03;;;;;;;10.03;4.87;;;;;;;;;;5054330;28;20200;-44
2022/10/29 03:15:29;;;;;;;10.43;5.50;;;;;;;;;;5054236;28;20239;-44
2022/10/29 03:17:55;;;;;;;11.03;5.10;;;;;;;;;;5054176;28;20698;-44
2022/10/29 03:20:21;;;;;;;8.00;5.70;;;;;;;;;;5054346;28;20207;-44
2022/10/29 03:22:47;;;;;;;7.93;5.23;;;;;;;;;;5054159;28;20207;-44
2022/10/29 03:25:13;;;;;;;8.83;5.10;;;;;;;;;;5054146;28;20210;-44
2022/10/29 03:27:41;;;;;;;8.17;5.33;;;;;;;;;;5054213;28;20207;-44
2022/10/29 03:30:09;;;;;;;9.53;5.53;;;;;;;;;;5054231;28;20200;-44
2022/10/29 03:32:38;;;;;;;8.17;5.20;;;;;;;;;;5053531;28;20201;-44
2022/10/29 03:35:05;;;;;;;11.43;5.37;;;;;;;;;;5052203;28;20192;-45
2022/10/29 03:37:31;;;;;;;9.20;5.73;;;;;;;;;;5053519;28;20232;-44
2022/10/29 03:39:57;;;;;;;8.83;5.27;;;;;;;;;;5053928;28;20199;-45
2022/10/29 03:42:23;;;;;;;7.53;5.13;;;;;;;;;;5051591;28;20196;-45
2022/10/29 03:44:49;;;;;;;10.27;6.00;;;;;;;;;;5051955;28;20204;-45
2022/10/29 03:47:16;;;;;;;11.20;5.67;;;;;;;;;;5053656;28;20337;-44
2022/10/29 03:49:42;;;;;;;9.13;6.00;;;;;;;;;;5053377;28;20208;-44
2022/10/29 03:52:08;;;;;;;8.83;5.53;;;;;;;;;;5053417;28;20240;-44
2022/10/29 03:54:34;;;;;;;9.97;6.30;;;;;;;;;;5053461;28;20200;-44
2022/10/29 03:57:00;;;;;;;9.47;6.60;;;;;;;;;;5051568;28;20585;-44
2022/10/29 03:59:26;;;;;;;10.90;5.67;;;;;;;;;;5053325;28;20211;-44
2022/10/29 04:01:52;;;;;;;13.43;5.57;;;;;;;;;;5053709;28;20200;-45
2022/10/29 04:04:20;;;;;;;8.13;5.00;;;;;;;;;;5053625;28;20202;-45
2022/10/29 04:06:46;;;;;;;10.73;6.00;;;;;;;;;;5053530;28;20224;-44
2022/10/29 04:09:12;;;;;;;8.73;5.10;;;;;;;;;;5053247;28;20251;-45
2022/10/29 04:11:38;;;;;;;9.10;4.93;;;;;;;;;;5051176;28;20265;-44
2022/10/29 04:14:04;;;;;;;9.67;5.87;;;;;;;;;;5053003;28;20710;-44
2022/10/29 04:16:30;;;;;;;11.73;6.23;;;;;;;;;;5052903;28;20200;-44
2022/10/29 04:18:56;;;;;;;11.20;5.20;;;;;;;;;;5052877;28;20632;-45
2022/10/29 04:21:23;;;;;;;10.67;5.23;;;;;;;;;;5049951;28;20215;-44
2022/10/29 04:23:50;;;;;;;12.53;5.87;;;;;;;;;;5049719;28;20230;-45
2022/10/29 04:26:16;;;;;;;9.33;5.17;;;;;;;;;;5052013;28;20210;-45
2022/10/29 04:28:42;;;;;;;5.80;4.30;;;;;;;;;;5050499;28;20561;-45
2022/10/29 04:31:10;;;;;;;6.53;4.80;;;;;;;;;;5050670;28;20197;-44
2022/10/29 04:33:36;;;;;;;11.97;7.73;;;;;;;;;;5052175;28;20253;-44
2022/10/29 04:36:03;;;;;;;12.77;7.50;;;;;;;;;;5050591;28;20570;-44
2022/10/29 04:38:30;;;;;;;9.07;6.10;;;;;;;;;;5051856;28;20776;-44
2022/10/29 04:40:57;;;;;;;10.03;5.33;;;;;;;;;;5050735;28;20200;-44
2022/10/29 04:43:23;;;;;;;12.67;5.47;;;;;;;;;;5052638;28;20206;-44
2022/10/29 04:45:50;;;;;;;9.07;5.63;;;;;;;;;;5052569;28;20628;-45
2022/10/29 04:48:16;;;;;;;7.90;4.90;;;;;;;;;;5052399;28;20716;-44
2022/10/29 04:50:42;;;;;;;6.63;5.07;;;;;;;;;;5052381;28;20240;-45
2022/10/29 04:53:08;;;;;;;7.57;5.40;;;;;;;;;;5052528;28;20205;-45
2022/10/29 04:55:39;;;;;;;9.10;5.93;;;;;;;;;;5052403;28;20200;-45
2022/10/29 04:58:05;;;;;;;7.40;5.00;;;;;;;;;;5052120;28;20343;-45
2022/10/29 05:00:31;;;;;;;8.57;4.43;;;;;;;;;;5052243;28;20197;-46
2022/10/29 05:02:58;;;;;;;7.13;4.60;;;;;;;;;;5052294;28;20198;-45
2022/10/29 05:05:24;;;;;;;8.20;4.80;;;;;;;;;;5052316;28;20235;-45
2022/10/29 05:07:55;;;;;;;7.27;5.03;;;;;;;;;;5052259;28;20238;-45
2022/10/29 05:10:21;;;;;;;10.43;4.80;;;;;;;;;;5052340;28;20262;-45
2022/10/29 05:12:55;;;;;;;9.40;5.30;;;;;;;;;;5051123;28;20204;-45
2022/10/29 05:15:21;;;;;;;7.40;5.23;;;;;;;;;;5051794;28;20257;-45
2022/10/29 05:17:47;;;;;;;9.13;5.37;;;;;;;;;;5052017;28;20232;-45
2022/10/29 05:20:13;;;;;;;8.80;4.67;;;;;;;;;;5052204;28;20287;-45
2022/10/29 05:22:39;;;;;;;12.67;4.80;;;;;;;;;;5051943;28;20202;-45
2022/10/29 05:25:05;;;;;;;11.90;6.20;;;;;;;;;;5051602;28;20196;-45
2022/10/29 05:27:31;;;;;;;8.57;6.27;;;;;;;;;;5051989;28;20196;-44
2022/10/29 05:29:59;;;;;;;9.57;5.13;;;;;;;;;;5051723;28;20192;-44
2022/10/29 05:32:27;;;;;;;10.60;6.13;;;;;;;;;;5051702;28;20223;-44
2022/10/29 05:34:53;;;;;;;9.83;6.50;;;;;;;;;;5051867;28;20287;-44
2022/10/29 05:37:19;;;;;;;9.10;6.13;;;;;;;;;;5051696;28;20281;-44
2022/10/29 05:39:45;;;;;;;11.13;6.50;;;;;;;;;;5051864;28;20200;-44
2022/10/29 05:42:11;;;;;;;10.43;6.33;;;;;;;;;;5051870;28;20265;-45
2022/10/29 05:44:37;;;;;;;9.53;5.90;;;;;;;;;;5051667;28;20655;-45
2022/10/29 05:47:06;;;;;;;11.67;5.70;;;;;;;;;;5051687;28;20196;-45
2022/10/29 05:49:32;;;;;;;11.30;6.10;;;;;;;;;;5051450;28;20250;-45
2022/10/29 05:51:58;;;;;;;8.73;5.83;;;;;;;;;;5051651;28;20228;-46
2022/10/29 05:54:24;;;;;;;11.10;5.70;;;;;;;;;;5051697;28;20203;-46
2022/10/29 05:56:50;;;;;;;11.30;6.03;;;;;;;;;;5051538;28;20196;-45
2022/10/29 05:59:16;;;;;;;9.00;6.60;;;;;;;;;;5051459;28;20207;-46
2022/10/29 06:01:42;;;;;;;12.27;7.20;;;;;;;;;;5051510;28;20403;-45
2022/10/29 06:04:10;;;;;;;17.67;8.07;;;;;;;;;;5051509;28;20227;-45
2022/10/29 06:06:37;;;;;;;10.77;7.90;;;;;;;;;;5051507;28;20287;-46
2022/10/29 06:09:03;;;;;;;15.00;9.20;;;;;;;;;;5051141;28;20747;-45
2022/10/29 06:11:29;;;;;;;14.90;8.83;;;;;;;;;;5051376;28;20265;-45
2022/10/29 06:13:55;;;;;;;18.23;8.70;;;;;;;;;;5051241;28;20212;-45
2022/10/29 06:16:22;;;;;;;12.53;7.50;;;;;;;;;;5050674;28;20192;-45
2022/10/29 06:18:48;;;;;;;14.33;7.90;;;;;;;;;;5049868;28;20227;-45
2022/10/29 06:21:15;;;;;;;8.80;7.10;;;;;;;;;;5049937;28;20288;-45
2022/10/29 06:23:41;;;;;;;11.47;6.60;;;;;;;;;;5050732;28;20208;-46
2022/10/29 06:26:07;;;;;;;8.93;6.33;;;;;;;;;;5050731;28;20207;-45
2022/10/29 06:28:33;;;;;;;12.93;7.30;;;;;;;;;;5048952;28;20196;-45
2022/10/29 06:30:59;;;;;;;14.60;7.43;;;;;;;;;;5050721;28;20262;-45
2022/10/29 06:33:25;;;;;;;12.00;6.43;;;;;;;;;;5050736;28;20196;-45
2022/10/29 06:35:51;;;;;;;8.20;5.80;;;;;;;;;;5051238;28;20207;-45
2022/10/29 06:38:19;;;;;;;11.80;6.47;;;;;;;;;;5052560;28;20224;-46
2022/10/29 06:40:51;;;;;;;10.17;6.10;;;;;;;;;;5054694;28;20196;-45
2022/10/29 06:43:17;;;;;;;9.47;5.57;;;;;;;;;;5054954;28;20736;-45
2022/10/29 06:45:43;;;;;;;7.23;5.20;;;;;;;;;;5054408;28;20200;-45
2022/10/29 06:48:09;;;;;;;8.83;5.70;;;;;;;;;;5054496;28;20246;-44
2022/10/29 06:50:35;;;;;;;8.47;6.27;;;;;;;;;;5053146;28;20243;-45
2022/10/29 06:53:02;;;;;;;12.20;7.27;;;;;;;;;;5053833;28;20200;-45
2022/10/29 06:55:29;;;;;;;10.63;7.90;;;;;;;;;;5054681;28;20200;-45
2022/10/29 06:57:56;;;;;;;9.97;7.97;;;;;;;;;;5054534;28;20258;-43
2022/10/29 07:00:22;;;;;;;10.10;7.13;;;;;;;;;;5054677;28;20204;-45
2022/10/29 07:02:48;;;;;;;11.73;7.23;;;;;;;;;;5052687;28;20207;-45
2022/10/29 07:05:14;;;;;;;10.13;6.37;;;;;;;;;;5054560;28;20290;-45
2022/10/29 07:07:40;;;;;;;9.87;7.30;;;;;;;;;;5051926;28;20228;-45
2022/10/29 07:10:07;;;;;;;11.83;8.97;;;;;;;;;;5054590;28;20200;-45
2022/10/29 07:12:40;;;;;;;17.23;12.50;;;;;;;;;;5054752;28;20202;-45
2022/10/29 07:15:06;;;;;;;19.03;15.90;;;;;;;;;;5054600;28;20219;-45
2022/10/29 07:17:32;;;;;;;12.53;10.53;;;;;;;;;;5052107;28;20220;-45
2022/10/29 07:19:59;;;;;;;12.87;10.77;;;;;;;;;;5054115;28;20262;-45
2022/10/29 07:22:25;;;;;;;13.40;9.77;;;;;;;;;;5052073;28;20204;-45
2022/10/29 07:24:51;;;;;;;12.83;9.07;;;;;;;;;;5052031;28;20266;-45
2022/10/29 07:27:17;;;;;;;12.33;9.07;;;;;;;;;;5052036;28;20663;-46
2022/10/29 07:29:44;;;;;;;12.30;8.53;;;;;;;;;;5054013;28;20626;-45
2022/10/29 07:32:10;;;;;;;8.63;7.70;;;;;;;;;;5053854;28;20251;-45
2022/10/29 07:34:36;;;;;;;9.20;7.30;;;;;;;;;;5052033;28;20662;-45
2022/10/29 07:37:02;;;;;;;11.33;7.10;;;;;;;;;;5051956;28;20287;-45
2022/10/29 07:39:28;;;;;;;9.20;6.87;;;;;;;;;;5053627;28;20203;-45
2022/10/29 07:41:54;;;;;;;8.67;6.80;;;;;;;;;;5050696;28;20203;-45
2022/10/29 07:44:20;;;;;;;7.53;6.30;;;;;;;;;;5053277;28;20200;-44
2022/10/29 07:46:48;;;;;;;10.67;7.27;;;;;;;;;;5053569;28;20202;-44
2022/10/29 07:49:14;;;;;;;10.80;7.47;;;;;;;;;;5053317;28;20299;-45
2022/10/29 07:51:40;;;;;;;11.40;7.77;;;;;;;;;;5053246;28;20259;-44
2022/10/29 07:54:06;;;;;;;13.47;8.27;;;;;;;;;;5053522;28;20291;-44
2022/10/29 07:56:32;;;;;;;9.37;7.60;;;;;;;;;;5052195;28;20731;-45
2022/10/29 07:58:58;;;;;;;13.00;7.83;;;;;;;;;;5051044;28;20281;-45
2022/10/29 08:01:24;;;;;;;13.07;7.60;;;;;;;;;;5052600;28;20685;-45
2022/10/29 08:03:52;;;;;;;14.67;8.57;;;;;;;;;;5048858;28;20236;-45
2022/10/29 08:06:18;;;;;;;15.00;9.30;;;;;;;;;;5052758;28;20301;-45
2022/10/29 08:08:44;;;;;;;13.50;8.40;;;;;;;;;;5052495;28;20304;-45
2022/10/29 08:11:10;;;;;;;10.00;7.77;;;;;;;;;;5052672;28;20204;-46
2022/10/29 08:13:36;;;;;;;11.17;7.63;;;;;;;;;;5052693;28;20205;-46
2022/10/29 08:16:02;;;;;;;12.13;8.37;;;;;;;;;;5052808;28;20207;-45
2022/10/29 08:18:28;;;;;;;13.40;8.93;;;;;;;;;;5052427;28;20224;-45
2022/10/29 08:20:55;;;;;;;9.27;8.00;;;;;;;;;;5052754;28;20203;-45
2022/10/29 08:23:22;;;;;;;12.40;8.50;;;;;;;;;;5052471;28;20216;-45
2022/10/29 08:25:48;;;;;;;14.57;9.13;;;;;;;;;;5051257;28;20212;-45
2022/10/29 08:28:15;;;;;;;23.50;20.47;;;;;;;;;;5052737;28;20221;-46
2022/10/29 08:30:42;;;;;;;17.63;12.40;;;;;;;;;;5052122;28;20322;-44
2022/10/29 08:33:09;;;;;;;13.57;8.60;;;;;;;;;;5052710;28;20725;-45
2022/10/29 08:35:35;;;;;;;14.60;9.17;;;;;;;;;;5052221;28;20197;-45
2022/10/29 08:38:03;;;;;;;15.47;8.80;;;;;;;;;;5052319;28;20619;-45
2022/10/29 08:40:30;;;;;;;12.17;9.13;;;;;;;;;;5052613;28;20631;-44
2022/10/29 08:43:15;;;;;;;13.10;9.20;;;;;;;;;;5052357;28;20538;-45
2022/10/29 08:45:45;;;;;;;14.33;9.53;;;;;;;;;;5052127;28;20210;-45
2022/10/29 08:48:20;;;;;;;17.87;10.83;;;;;;;;;;5050055;28;20252;-44
2022/10/29 08:50:48;;;;;;;15.97;9.00;;;;;;;;;;5051844;28;20267;-45
2022/10/29 08:53:18;;;;;;;14.83;9.53;;;;;;;;;;5052068;28;20771;-44
2022/10/29 08:55:44;;;;;;;18.50;8.87;;;;;;;;;;5051782;28;20297;-44
2022/10/29 08:58:15;;;;;;;18.67;13.10;;;;;;;;;;5051605;28;20284;-44
2022/10/29 09:00:42;;;;;;;14.80;13.00;;;;;;;;;;5050687;28;20202;-45
2022/10/29 09:03:09;;;;;;;18.30;8.40;;;;;;;;;;5052141;28;20196;-44
2022/10/29 09:05:45;;;;;;;13.33;8.20;;;;;;;;;;5051864;28;20205;-45
2022/10/29 09:08:22;;;;;;;13.17;7.90;;;;;;;;;;5052158;28;20247;-45
2022/10/29 09:10:52;;;;;;;10.17;7.17;;;;;;;;;;5049302;28;20207;-45
2022/10/29 09:13:33;;;;;;;14.10;7.30;;;;;;;;;;5051100;28;20259;-45
2022/10/29 09:16:02;;;;;;;16.93;8.17;;;;;;;;;;5049641;28;20226;-44
2022/10/29 09:18:42;;;;;;;15.87;9.10;;;;;;;;;;5051761;28;20232;-45
2022/10/29 09:21:14;;;;;;;14.83;8.33;;;;;;;;;;5051885;28;20199;-45
2022/10/29 09:23:51;;;;;;;11.17;7.17;;;;;;;;;;5051673;28;20227;-45
2022/10/29 09:26:20;;;;;;;12.03;7.03;;;;;;;;;;5052132;28;20273;-45
2022/10/29 09:28:55;;;;;;;14.47;7.47;;;;;;;;;;5051943;28;20670;-46
2022/10/29 09:31:26;;;;;;;12.40;7.50;;;;;;;;;;5052023;28;20206;-46
2022/10/29 09:33:53;;;;;;;12.10;7.60;;;;;;;;;;5051979;28;20207;-46
2022/10/29 09:36:20;;;;;;;11.87;6.70;;;;;;;;;;5051950;28;20233;-46
2022/10/29 09:38:54;;;;;;;14.07;7.57;;;;;;;;;;5051564;28;20357;-46
2022/10/29 09:41:21;;;;;;;12.60;6.57;;;;;;;;;;5051611;28;20197;-46
2022/10/29 09:43:49;;;;;;;15.67;6.80;;;;;;;;;;5051329;28;20686;-46
2022/10/29 09:46:18;;;;;;;10.70;6.43;;;;;;;;;;5051601;28;20846;-46
2022/10/29 09:48:50;;;;;;;11.03;6.30;;;;;;;;;;5051330;28;20238;-46
2022/10/29 09:51:22;;;;;;;11.37;6.20;;;;;;;;;;5051327;28;20253;-46
2022/10/29 09:53:50;;;;;;;12.73;6.73;;;;;;;;;;5051315;28;20223;-46
2022/10/29 09:56:16;;;;;;;12.40;6.77;;;;;;;;;;5051643;28;20262;-46
2022/10/29 09:58:44;;;;;;;15.43;7.33;;;;;;;;;;5051144;28;20230;-46
2022/10/29 10:01:10;;;;;;;14.83;7.30;;;;;;;;;;5051536;28;20199;-46
2022/10/29 10:03:40;;;;;;;13.87;7.27;;;;;;;;;;5051195;28;20217;-46
2022/10/29 10:06:07;;;;;;;15.97;7.43;;;;;;;;;;5051103;28;20237;-46
2022/10/29 10:08:34;;;;;;;15.37;6.70;;;;;;;;;;5049193;28;20222;-46
2022/10/29 10:11:03;;;;;;;12.33;6.40;;;;;;;;;;5047213;28;20191;-45
2022/10/29 10:13:30;;;;;;;11.77;7.07;;;;;;;;;;5054372;28;20213;-44
2022/10/29 10:15:57;;;;;;;14.27;6.70;;;;;;;;;;5054587;28;20242;-45
2022/10/29 10:18:24;;;;;;;13.37;6.43;;;;;;;;;;5054941;28;20222;-45
2022/10/29 10:21:01;;;;;;;14.03;7.17;;;;;;;;;;5054709;28;20199;-45
2022/10/29 10:23:28;;;;;;;14.73;7.07;;;;;;;;;;5054411;28;20287;-46
2022/10/29 10:25:55;;;;;;;16.83;6.67;;;;;;;;;;5054569;28;20229;-45
2022/10/29 10:28:23;;;;;;;17.33;6.90;;;;;;;;;;5054663;28;20193;-45
2022/10/29 10:31:05;;;;;;;18.70;7.27;;;;;;;;;;5054999;28;20206;-45
2022/10/29 10:33:32;;;;;;;17.93;7.27;;;;;;;;;;5054718;28;20208;-45
2022/10/29 10:36:00;;;;;;;18.77;7.60;;;;;;;;;;5054797;28;20201;-45
2022/10/29 10:38:27;;;;;;;12.63;6.93;;;;;;;;;;5054653;28;20231;-45
2022/10/29 10:40:54;;;;;;;11.93;6.40;;;;;;;;;;5054838;28;20219;-45
2022/10/29 10:43:21;;;;;;;19.17;7.33;;;;;;;;;;5055165;28;20275;-45
2022/10/29 10:45:54;;;;;;;10.00;6.47;;;;;;;;;;5054867;28;20845;-45
2022/10/29 10:48:22;;;;;;;15.77;6.30;;;;;;;;;;5053837;28;20204;-45
2022/10/29 10:50:48;;;;;;;14.60;6.10;;;;;;;;;;5053860;28;20334;-46
2022/10/29 10:53:16;;;;;;;15.47;6.30;;;;;;;;;;5054713;28;20203;-45
2022/10/29 10:55:46;;;;;;;14.73;5.87;;;;;;;;;;5054406;28;20236;-45
2022/10/29 10:58:14;;;;;;;13.57;5.43;;;;;;;;;;5054182;28;20635;-45
2022/10/29 11:00:43;;;;;;;11.30;5.77;;;;;;;;;;5052736;28;20206;-45
2022/10/29 11:03:13;;;;;;;11.57;6.03;;;;;;;;;;5052055;28;20206;-46
2022/10/29 11:05:41;;;;;;;11.60;6.10;;;;;;;;;;5052664;28;20209;-46
2022/10/29 11:08:10;;;;;;;13.27;5.43;;;;;;;;;;5051545;28;20221;-46
2022/10/29 11:10:39;;;;;;;16.10;5.77;;;;;;;;;;5054080;28;20200;-46
2022/10/29 11:13:09;;;;;;;14.00;5.10;;;;;;;;;;5052489;28;20202;-46
2022/10/29 11:15:37;;;;;;;11.80;6.10;;;;;;;;;;5053168;28;20238;-45
2022/10/29 11:18:06;;;;;;;13.53;6.03;;;;;;;;;;5053783;28;20240;-45
2022/10/29 11:20:34;;;;;;;13.20;5.80;;;;;;;;;;5053945;28;20192;-45
2022/10/29 11:23:04;;;;;;;13.07;6.47;;;;;;;;;;5053014;28;20205;-45
2022/10/29 11:25:34;;;;;;;15.50;6.20;;;;;;;;;;5054206;28;20207;-46
2022/10/29 11:28:03;;;;;;;18.77;6.33;;;;;;;;;;5054429;28;20201;-46
2022/10/29 11:30:31;;;;;;;18.33;6.83;;;;;;;;;;5054154;28;20230;-44
2022/10/29 11:33:02;;;;;;;15.07;6.03;;;;;;;;;;5062657;28;20206;-45
2022/10/29 11:36:19;;;;;;;12.03;6.67;;;;;;;;;;5061920;28;21264;-45
2022/10/29 11:38:50;;;;;;;15.53;6.40;;;;;;;;;;4989219;28;20373;-45
2022/10/29 11:41:22;;;;;;;13.17;6.53;;;;;;;;;;5047239;28;20598;-45
2022/10/29 11:43:48;;;;;;;15.13;5.93;;;;;;;;;;5052185;28;20226;-45
2022/10/29 11:46:18;;;;;;;15.30;6.53;;;;;;;;;;5052396;28;20192;-45
2022/10/29 11:48:49;;;;;;;15.27;6.27;;;;;;;;;;5052956;28;20193;-45
2022/10/29 11:51:19;;;;;;;15.07;6.67;;;;;;;;;;5050936;28;20232;-45
2022/10/29 11:53:53;;;;;;;11.43;5.97;;;;;;;;;;5053729;28;20253;-45
2022/10/29 11:56:22;;;;;;;14.53;6.60;;;;;;;;;;5053870;28;20205;-46
2022/10/29 11:58:51;;;;;;;15.23;6.13;;;;;;;;;;5053479;28;20220;-46
2022/10/29 12:01:22;;;;;;;12.93;6.43;;;;;;;;;;5053632;28;20234;-46
2022/10/29 12:03:59;;;;;;;18.60;6.07;;;;;;;;;;5053451;28;20541;-46
2022/10/29 12:06:30;;;;;;;12.07;6.30;;;;;;;;;;5053518;28;20196;-46
2022/10/29 12:09:01;;;;;;;18.77;6.10;;;;;;;;;;5053362;28;20227;-46
2022/10/29 12:11:33;;;;;;;13.60;5.53;;;;;;;;;;5053570;28;20216;-46
2022/10/29 12:14:02;;;;;;;13.63;5.57;;;;;;;;;;5053401;28;20196;-46
2022/10/29 12:16:33;;;;;;;9.77;5.20;;;;;;;;;;5053417;28;20197;-46
2022/10/29 12:19:04;;;;;;;13.80;5.57;;;;;;;;;;5053137;28;20237;-46
2022/10/29 12:21:35;;;;;;;13.47;5.87;;;;;;;;;;5053463;28;20193;-46
2022/10/29 12:24:11;;;;;;;13.60;5.67;;;;;;;;;;5053131;28;20564;-46
2022/10/29 12:26:40;;;;;;;12.67;5.80;;;;;;;;;;5053135;28;20250;-46
2022/10/29 12:29:11;;;;;;;11.67;4.90;;;;;;;;;;5053095;28;20200;-46
2022/10/29 12:31:41;;;;;;;15.40;5.87;;;;;;;;;;5053035;28;20197;-45
2022/10/29 12:34:12;;;;;;;12.30;5.30;;;;;;;;;;5053024;28;20208;-45
2022/10/29 12:36:43;;;;;;;18.50;5.60;;;;;;;;;;5052886;28;20251;-45
2022/10/29 12:39:14;;;;;;;9.53;5.37;;;;;;;;;;5052916;28;20631;-45
2022/10/29 12:41:42;;;;;;;11.67;5.70;;;;;;;;;;5050687;28;20205;-45
2022/10/29 12:44:13;;;;;;;17.20;5.93;;;;;;;;;;5052336;28;20202;-45
2022/10/29 12:46:42;;;;;;;14.30;5.83;;;;;;;;;;5052457;28;20275;-45
2022/10/29 12:49:10;;;;;;;17.20;5.60;;;;;;;;;;5051618;28;20197;-46
2022/10/29 12:51:41;;;;;;;13.73;4.57;;;;;;;;;;5051792;28;20332;-46
2022/10/29 12:54:24;;;;;;;10.73;4.80;;;;;;;;;;5052277;28;20201;-45
2022/10/29 12:56:50;;;;;;;15.37;5.30;;;;;;;;;;5052276;28;20205;-46
2022/10/29 12:59:33;;;;;;;12.43;4.80;;;;;;;;;;5052025;28;20225;-47
2022/10/29 13:02:18;;;;;;;11.70;4.97;;;;;;;;;;5047372;28;20198;-45
2022/10/29 13:04:59;;;;;;;16.07;5.90;;;;;;;;;;5051903;28;20228;-45
2022/10/29 13:07:25;;;;;;;11.27;4.87;;;;;;;;;;5051002;28;20292;-45
2022/10/29 13:10:28;;;;;;;12.40;5.77;;;;;;;;;;5051636;28;20677;-45
2022/10/29 13:12:59;;;;;;;10.37;5.27;;;;;;;;;;5051111;28;20201;-45
2022/10/29 13:15:28;;;;;;;10.93;5.13;;;;;;;;;;5051536;28;20206;-44
2022/10/29 13:17:55;;;;;;;13.10;5.47;;;;;;;;;;5049514;28;20224;-45
2022/10/29 13:20:24;;;;;;;15.67;5.70;;;;;;;;;;5051689;28;20207;-45
2022/10/29 13:22:51;;;;;;;14.10;7.33;;;;;;;;;;5050921;28;20197;-45
2022/10/29 13:25:50;;;;;;;9.47;5.13;;;;;;;;;;5051338;28;20219;-45
2022/10/29 13:28:34;;;;;;;19.30;7.07;;;;;;;;;;5049930;28;20192;-45
2022/10/29 13:31:15;;;;;;;15.43;5.90;;;;;;;;;;5051606;28;20196;-45
2022/10/29 13:33:49;;;;;;;15.10;5.63;;;;;;;;;;5057440;28;20199;-45
2022/10/29 13:36:36;;;;;;;12.00;4.97;;;;;;;;;;5061733;28;20664;-45
2022/10/29 13:39:04;;;;;;;11.33;4.90;;;;;;;;;;5050493;28;20299;-45
2022/10/29 13:41:40;;;;;;;12.43;5.10;;;;;;;;;;5050821;28;20202;-45
2022/10/29 13:44:10;;;;;;;12.17;4.63;;;;;;;;;;5049441;28;20199;-45
2022/10/29 13:46:43;;;;;;;12.77;5.17;;;;;;;;;;5050754;28;20196;-46
2022/10/29 13:49:12;;;;;;;15.53;5.60;;;;;;;;;;5051120;28;20199;-45
2022/10/29 13:51:44;;;;;;;15.37;5.40;;;;;;;;;;5051249;28;20302;-46
2022/10/29 13:54:15;;;;;;;11.30;5.23;;;;;;;;;;5051511;28;20197;-45
2022/10/29 13:56:45;;;;;;;8.27;4.30;;;;;;;;;;5051337;28;20196;-45
2022/10/29 13:59:14;;;;;;;21.43;5.80;;;;;;;;;;5050478;28;20686;-45
2022/10/29 14:01:48;;;;;;;34.40;7.30;;;;;;;;;;5051508;28;20899;-45
2022/10/29 14:04:21;;;;;;;16.07;5.63;;;;;;;;;;5050680;28;20240;-45
2022/10/29 14:06:48;;;;;;;18.17;5.37;;;;;;;;;;5050914;28;20736;-45
2022/10/29 14:09:19;;;;;;;17.00;5.80;;;;;;;;;;5048866;28;20245;-45
2022/10/29 14:11:49;;;;;;;14.27;5.73;;;;;;;;;;5050621;28;20651;-45
2022/10/29 14:14:24;;;;;;;17.57;6.37;;;;;;;;;;5051508;28;20317;-45
2022/10/29 14:16:50;;;;;;;11.60;5.97;;;;;;;;;;5049528;28;20196;-45
2022/10/29 14:19:20;;;;;;;14.27;6.90;;;;;;;;;;5049956;28;20224;-45
2022/10/29 14:21:46;;;;;;;10.80;6.70;;;;;;;;;;5051119;28;20205;-45
2022/10/29 14:24:14;;;;;;;14.03;6.77;;;;;;;;;;5050331;28;20223;-45
2022/10/29 14:26:41;;;;;;;13.63;6.33;;;;;;;;;;5051125;28;20200;-45
2022/10/29 14:29:14;;;;;;;32.80;9.17;;;;;;;;;;5048733;28;20752;-45
2022/10/29 14:31:40;;;;;;;39.90;8.93;;;;;;;;;;5050649;28;20196;-45
2022/10/29 14:34:07;;;;;;;23.10;7.67;;;;;;;;;;5050059;28;20204;-45
2022/10/29 14:36:36;;;;;;;11.20;5.90;;;;;;;;;;5050357;28;20207;-45
2022/10/29 14:39:03;;;;;;;17.10;7.70;;;;;;;;;;5048726;28;20289;-45
2022/10/29 14:41:30;;;;;;;23.77;7.30;;;;;;;;;;5049514;28;20247;-45